createdAt,value
2022-11-29T00:00:29.985Z,100068.00
2022-11-29T00:01:31.565Z,100069.97
2022-11-29T00:02:33.077Z,100068.00
2022-11-29T00:03:34.663Z,100078.31
2022-11-29T00:04:37.010Z,100077.22
2022-11-29T00:05:38.461Z,100068.00
2022-11-29T00:06:40.037Z,100066.06
2022-11-29T00:07:41.519Z,100075.53
2022-11-29T00:08:43.043Z,100071.63
2022-11-29T00:09:44.548Z,100068.84
2022-11-29T00:10:46.088Z,100064.94
2022-11-29T00:12:06.249Z,100070.50
2022-11-29T00:13:07.807Z,100070.50
2022-11-29T00:14:10.125Z,100065.78
2022-11-29T00:15:11.866Z,100066.59
2022-11-29T00:16:13.489Z,100069.41
2022-11-29T00:17:14.994Z,100071.06
2022-11-29T00:18:16.469Z,100064.66
2022-11-29T00:19:18.147Z,100068.28
2022-11-29T00:20:19.671Z,100063.53
2022-11-29T00:21:21.151Z,100066.59
2022-11-29T00:22:25.158Z,100052.06
2022-11-29T00:23:26.714Z,100061.03
2022-11-29T00:24:28.562Z,100061.03
2022-11-29T00:25:30.034Z,100061.03
2022-11-29T00:26:31.506Z,100064.94
2022-11-29T00:27:33.849Z,100059.34
2022-11-29T00:28:35.846Z,100065.22
2022-11-29T00:29:37.307Z,100066.06
2022-11-29T00:30:38.913Z,100070.50
2022-11-29T00:31:40.480Z,100070.50
2022-11-29T00:32:41.933Z,100070.50
2022-11-29T00:33:43.447Z,100068.00
2022-11-29T00:34:45.077Z,100062.41
2022-11-29T00:35:46.708Z,100068.00
2022-11-29T00:36:48.199Z,100061.59
2022-11-29T00:37:49.688Z,100069.97
2022-11-29T00:38:51.129Z,100067.16
2022-11-29T00:39:52.717Z,100060.47
2022-11-29T00:40:54.143Z,100068.00
2022-11-29T00:41:55.630Z,100074.94
2022-11-29T00:42:57.223Z,100076.66
2022-11-29T00:43:58.732Z,100069.97
2022-11-29T00:45:00.184Z,100071.06
2022-11-29T00:46:01.856Z,100069.38
2022-11-29T00:47:03.406Z,100078.31
2022-11-29T00:48:04.888Z,100077.50
2022-11-29T00:49:06.433Z,100072.75
2022-11-29T00:50:08.016Z,100075.81
2022-11-29T00:51:09.570Z,100082.22
2022-11-29T00:52:11.074Z,100074.94
2022-11-29T00:53:12.589Z,100078.00
2022-11-29T00:54:14.121Z,100078.84
2022-11-29T00:55:15.617Z,100069.38
2022-11-29T00:56:17.141Z,100072.16
2022-11-29T00:57:18.700Z,100083.31
2022-11-29T00:58:20.248Z,100077.19
2022-11-29T00:59:21.722Z,100079.69
2022-11-29T01:00:23.258Z,100078.00
2022-11-29T01:01:24.793Z,100076.66
2022-11-29T01:02:26.397Z,100077.72
2022-11-29T01:03:27.862Z,100082.22
2022-11-29T01:04:29.734Z,100082.22
2022-11-29T01:05:31.663Z,100075.81
2022-11-29T01:06:33.105Z,100082.22
2022-11-29T01:07:34.618Z,100078.31
2022-11-29T01:08:36.432Z,100077.50
2022-11-29T01:09:37.886Z,100083.91
2022-11-29T01:10:39.402Z,100082.22
2022-11-29T01:11:40.871Z,100085.88
2022-11-29T01:12:42.309Z,100081.41
2022-11-29T01:13:44.049Z,100085.03
2022-11-29T01:14:45.658Z,100087.81
2022-11-29T01:15:47.583Z,100086.97
2022-11-29T01:16:49.104Z,100092.56
2022-11-29T01:17:50.654Z,100092.56
2022-11-29T01:18:52.120Z,100095.59
2022-11-29T01:19:53.657Z,100088.06
2022-11-29T01:20:55.990Z,100088.91
2022-11-29T01:21:57.893Z,100087.22
2022-11-29T01:22:59.353Z,100091.69
2022-11-29T01:24:01.712Z,100090.84
2022-11-29T01:25:03.605Z,100083.31
2022-11-29T01:26:06.233Z,100091.69
2022-11-29T01:27:07.753Z,100091.44
2022-11-29T01:28:09.211Z,100092.28
2022-11-29T01:29:11.018Z,100095.06
2022-11-29T01:30:13.781Z,100096.19
2022-11-29T01:31:16.597Z,100099.53
2022-11-29T01:32:18.124Z,100092.84
2022-11-29T01:33:19.668Z,100101.22
2022-11-29T01:34:21.131Z,100100.09
2022-11-29T01:35:22.609Z,100100.09
2022-11-29T01:36:24.350Z,100102.88
2022-11-29T01:37:25.819Z,100105.13
2022-11-29T01:38:27.368Z,100100.66
2022-11-29T01:39:28.868Z,100103.44
2022-11-29T01:40:30.374Z,100109.88
2022-11-29T01:41:32.640Z,100106.22
2022-11-29T01:42:34.131Z,100101.19
2022-11-29T01:43:50.875Z,100098.97
2022-11-29T01:44:52.310Z,100100.66
2022-11-29T01:45:53.967Z,100104.56
2022-11-29T01:46:55.453Z,100103.72
2022-11-29T01:47:56.915Z,100095.34
2022-11-29T01:49:00.426Z,100104.56
2022-11-29T01:50:01.977Z,100109.03
2022-11-29T01:51:03.463Z,100107.91
2022-11-29T01:52:06.017Z,100111.81
2022-11-29T01:53:07.458Z,100107.91
2022-11-29T01:54:08.907Z,100107.91
2022-11-29T01:55:10.461Z,100099.25
2022-11-29T01:56:12.194Z,100106.78
2022-11-29T01:57:13.686Z,100105.69
2022-11-29T01:58:15.381Z,100101.22
2022-11-29T01:59:17.186Z,100109.59
2022-11-29T02:00:19.167Z,100104.00
2022-11-29T02:01:21.301Z,100109.59
2022-11-29T02:02:32.767Z,100098.44
2022-11-29T02:03:34.329Z,100105.69
2022-11-29T02:04:35.900Z,100100.09
2022-11-29T02:05:41.365Z,100108.19
2022-11-29T02:06:43.038Z,100103.72
2022-11-29T02:07:44.994Z,100109.31
2022-11-29T02:08:46.537Z,100105.69
2022-11-29T02:09:48.005Z,100104.84
2022-11-29T02:11:04.757Z,100104.84
2022-11-29T02:12:24.274Z,100104.00
2022-11-29T02:13:28.409Z,100104.00
2022-11-29T02:14:48.597Z,100097.88
2022-11-29T02:16:16.398Z,100095.00
2022-11-29T02:17:36.688Z,100102.00
2022-11-29T02:18:38.183Z,100109.31
2022-11-29T02:19:58.142Z,100108.44
2022-11-29T02:21:11.609Z,100105.63
2022-11-29T02:22:24.613Z,100106.75
2022-11-29T02:23:28.667Z,100103.72
2022-11-29T02:24:42.773Z,100113.19
2022-11-29T02:25:50.161Z,100103.97
2022-11-29T02:26:57.546Z,100105.63
2022-11-29T02:28:09.479Z,100102.00
2022-11-29T02:29:29.135Z,100105.41
2022-11-29T02:30:33.710Z,100103.72
2022-11-29T02:31:35.164Z,100111.81
2022-11-29T02:32:36.620Z,100109.03
2022-11-29T02:33:46.824Z,100111.81
2022-11-29T02:35:08.273Z,100105.41
2022-11-29T02:36:15.377Z,100115.72
2022-11-29T02:37:39.791Z,100104.56
2022-11-29T02:38:47.184Z,100100.94
2022-11-29T02:40:07.257Z,100103.44
2022-11-29T02:41:08.698Z,100107.06
2022-11-29T02:42:10.125Z,100114.00
2022-11-29T02:43:25.474Z,100104.56
2022-11-29T02:44:41.800Z,100111.22
2022-11-29T02:45:56.904Z,100112.34
2022-11-29T02:47:15.827Z,100108.44
2022-11-29T02:48:17.261Z,100110.66
2022-11-29T02:49:45.003Z,100116.25
2022-11-29T02:50:57.445Z,100116.25
2022-11-29T02:52:00.335Z,100106.75
2022-11-29T02:53:01.830Z,100109.53
2022-11-29T02:54:06.463Z,100119.59
2022-11-29T02:55:13.545Z,100114.88
2022-11-29T02:56:33.517Z,100114.59
2022-11-29T02:57:41.092Z,100117.13
2022-11-29T02:58:48.535Z,100106.22
2022-11-29T02:59:55.872Z,100116.28
2022-11-29T03:00:59.055Z,100118.22
2022-11-29T03:02:03.177Z,100111.81
2022-11-29T03:03:13.407Z,100112.38
2022-11-29T03:04:23.830Z,100110.44
2022-11-29T03:05:25.312Z,100116.00
2022-11-29T03:06:35.734Z,100117.13
2022-11-29T03:07:52.592Z,100119.06
2022-11-29T03:09:09.018Z,100107.91
2022-11-29T03:10:10.501Z,100119.91
2022-11-29T03:11:11.930Z,100122.44
2022-11-29T03:12:36.781Z,100113.22
2022-11-29T03:13:38.240Z,100125.22
2022-11-29T03:14:54.463Z,100118.53
2022-11-29T03:16:02.842Z,100122.16
2022-11-29T03:17:23.071Z,100124.09
2022-11-29T03:18:30.437Z,100122.44
2022-11-29T03:19:50.735Z,100124.09
2022-11-29T03:20:58.646Z,100129.69
2022-11-29T03:22:02.781Z,100126.88
2022-11-29T03:23:14.940Z,100118.53
2022-11-29T03:24:19.646Z,100128.56
2022-11-29T03:25:29.346Z,100123.25
2022-11-29T03:26:35.619Z,100131.63
2022-11-29T03:27:46.125Z,100127.44
2022-11-29T03:28:56.061Z,100126.34
2022-11-29T03:29:58.786Z,100126.34
2022-11-29T03:31:03.368Z,100131.91
2022-11-29T03:32:14.113Z,100133.59
2022-11-29T03:33:24.289Z,100131.91
2022-11-29T03:34:35.822Z,100129.69
2022-11-29T03:35:37.275Z,100131.63
2022-11-29T03:36:53.730Z,100131.63
2022-11-29T03:37:55.376Z,100133.59
2022-11-29T03:38:57.960Z,100137.50
2022-11-29T03:40:04.483Z,100131.91
2022-11-29T03:41:14.132Z,100138.34
2022-11-29T03:42:21.282Z,100137.50
2022-11-29T03:43:48.984Z,100135.81
2022-11-29T03:44:53.366Z,100141.41
2022-11-29T03:45:59.021Z,100143.34
2022-11-29T03:47:16.281Z,100137.78
2022-11-29T03:48:19.346Z,100139.72
2022-11-29T03:49:22.910Z,100137.50
2022-11-29T03:50:26.091Z,100140.56
2022-11-29T03:51:46.423Z,100145.31
2022-11-29T03:52:49.603Z,100141.69
2022-11-29T03:54:01.986Z,100144.72
2022-11-29T03:55:09.089Z,100144.47
2022-11-29T03:56:27.781Z,100142.50
2022-11-29T03:57:33.996Z,100147.25
2022-11-29T03:58:41.585Z,100140.84
2022-11-29T03:59:49.157Z,100138.06
2022-11-29T04:00:50.581Z,100136.34
2022-11-29T04:01:57.957Z,100140.84
2022-11-29T04:03:19.694Z,100145.31
2022-11-29T04:04:36.222Z,100150.28
2022-11-29T04:05:44.950Z,100140.00
2022-11-29T04:06:46.379Z,100134.41
2022-11-29T04:07:50.259Z,100136.94
2022-11-29T04:08:51.869Z,100139.72
2022-11-29T04:09:59.019Z,100144.19
2022-11-29T04:11:00.597Z,100146.72
2022-11-29T04:12:17.133Z,100139.16
2022-11-29T04:13:35.625Z,100138.06
2022-11-29T04:14:59.803Z,100140.00
2022-11-29T04:16:03.092Z,100138.34
2022-11-29T04:17:07.425Z,100130.78
2022-11-29T04:18:27.654Z,100142.25
2022-11-29T04:19:47.462Z,100141.97
2022-11-29T04:21:24.447Z,100141.41
2022-11-29T04:22:44.374Z,100137.78
2022-11-29T04:23:56.040Z,100146.97
2022-11-29T04:25:16.148Z,100134.97
2022-11-29T04:26:17.638Z,100140.56
2022-11-29T04:27:28.242Z,100138.88
2022-11-29T04:28:33.369Z,100146.16
2022-11-29T04:29:53.634Z,100155.34
2022-11-29T04:31:24.511Z,100150.88
2022-11-29T04:32:26.232Z,100148.38
2022-11-29T04:33:48.028Z,100154.78
2022-11-29T04:35:08.115Z,100150.88
2022-11-29T04:36:12.354Z,100156.47
2022-11-29T04:37:22.861Z,100156.47
2022-11-29T04:38:24.395Z,100155.63
2022-11-29T04:39:31.169Z,100156.47
2022-11-29T04:40:47.515Z,100155.63
2022-11-29T04:42:00.298Z,100159.81
2022-11-29T04:43:07.759Z,100160.94
2022-11-29T04:44:15.317Z,100160.09
2022-11-29T04:45:16.748Z,100159.81
2022-11-29T04:46:27.160Z,100157.03
2022-11-29T04:47:28.871Z,100164.56
2022-11-29T04:48:49.250Z,100171.81
2022-11-29T04:49:56.861Z,100161.50
2022-11-29T04:51:01.215Z,100161.78
2022-11-29T04:52:21.598Z,100167.34
2022-11-29T04:53:41.910Z,100167.63
2022-11-29T04:54:43.894Z,100159.53
2022-11-29T04:55:48.408Z,100173.22
2022-11-29T04:56:50.885Z,100166.78
2022-11-29T04:58:04.181Z,100163.16
2022-11-29T04:59:22.981Z,100165.97
2022-11-29T05:00:24.512Z,100172.38
2022-11-29T05:01:28.442Z,100171.53
2022-11-29T05:02:34.023Z,100176.28
2022-11-29T05:03:35.516Z,100175.41
2022-11-29T05:04:37.278Z,100172.06
2022-11-29T05:05:50.785Z,100181.50
2022-11-29T05:06:55.298Z,100182.63
2022-11-29T05:08:17.507Z,100173.41
2022-11-29T05:09:21.894Z,100182.06
2022-11-29T05:10:23.308Z,100184.00
2022-11-29T05:11:28.055Z,100187.06
2022-11-29T05:12:32.514Z,100187.34
2022-11-29T05:13:52.617Z,100183.16
2022-11-29T05:15:12.894Z,100188.75
2022-11-29T05:16:29.698Z,100188.75
2022-11-29T05:17:33.621Z,100189.56
2022-11-29T05:18:50.165Z,100190.41
2022-11-29T05:20:04.377Z,100199.63
2022-11-29T05:21:09.797Z,100196.84
2022-11-29T05:22:16.992Z,100198.78
2022-11-29T05:23:19.097Z,100199.91
2022-11-29T05:24:39.002Z,100196.50
2022-11-29T05:25:45.507Z,100194.84
2022-11-29T05:26:46.979Z,100197.34
2022-11-29T05:27:50.095Z,100203.78
2022-11-29T05:28:51.748Z,100200.41
2022-11-29T05:30:03.617Z,100199.03
2022-11-29T05:31:13.800Z,100196.25
2022-11-29T05:32:41.607Z,100193.44
2022-11-29T05:34:01.245Z,100203.22
2022-11-29T05:35:02.682Z,100206.00
2022-11-29T05:36:12.145Z,100206.00
2022-11-29T05:37:32.126Z,100208.22
2022-11-29T05:38:42.733Z,100209.91
2022-11-29T05:39:44.255Z,100208.22
2022-11-29T05:40:48.630Z,100208.22
2022-11-29T05:42:13.308Z,100212.13
2022-11-29T05:43:18.172Z,100211.00
2022-11-29T05:44:25.473Z,100214.63
2022-11-29T05:45:28.633Z,100209.91
2022-11-29T05:46:37.994Z,100217.16
2022-11-29T05:47:48.306Z,100217.16
2022-11-29T05:49:12.933Z,100210.75
2022-11-29T05:50:33.235Z,100218.00
2022-11-29T05:51:46.566Z,100223.56
2022-11-29T05:53:06.378Z,100224.69
2022-11-29T05:54:24.669Z,100226.63
2022-11-29T05:55:26.157Z,100227.75
2022-11-29T05:56:27.598Z,100229.69
2022-11-29T05:57:38.177Z,100223.28
2022-11-29T05:58:51.931Z,100228.03
2022-11-29T05:59:53.391Z,100236.66
2022-11-29T06:01:01.287Z,100233.88
2022-11-29T06:02:19.927Z,100236.66
2022-11-29T06:03:24.989Z,100231.09
2022-11-29T06:04:29.301Z,100237.78
2022-11-29T06:05:30.833Z,100236.09
2022-11-29T06:06:39.599Z,100245.59
2022-11-29T06:07:52.023Z,100242.78
2022-11-29T06:09:13.938Z,100236.38
2022-11-29T06:10:17.765Z,100241.94
2022-11-29T06:11:24.386Z,100240.84
2022-11-29T06:12:26.890Z,100249.22
2022-11-29T06:13:28.365Z,100247.53
2022-11-29T06:14:47.834Z,100249.22
2022-11-29T06:16:04.803Z,100250.88
2022-11-29T06:17:06.633Z,100238.06
2022-11-29T06:18:43.581Z,100248.38
2022-11-29T06:20:10.142Z,100249.22
2022-11-29T06:21:23.872Z,100244.47
2022-11-29T06:22:40.272Z,100248.38
2022-11-29T06:23:48.518Z,100254.78
2022-11-29T06:25:08.357Z,100253.94
2022-11-29T06:26:13.097Z,100255.06
2022-11-29T06:27:29.050Z,100247.78
2022-11-29T06:28:53.608Z,100254.22
2022-11-29T06:29:57.821Z,100250.31
2022-11-29T06:31:01.125Z,100258.41
2022-11-29T06:32:05.313Z,100255.63
2022-11-29T06:33:14.563Z,100256.75
2022-11-29T06:34:19.932Z,100254.78
2022-11-29T06:35:33.188Z,100263.44
2022-11-29T06:36:41.079Z,100258.69
2022-11-29T06:37:43.610Z,100260.63
2022-11-29T06:38:45.907Z,100261.47
2022-11-29T06:39:47.488Z,100265.09
2022-11-29T06:40:49.740Z,100262.31
2022-11-29T06:41:51.259Z,100265.94
2022-11-29T06:42:52.717Z,100262.31
2022-11-29T06:43:54.339Z,100270.69
2022-11-29T06:44:55.921Z,100264.25
2022-11-29T06:46:06.293Z,100265.38
2022-11-29T06:47:09.294Z,100269.00
2022-11-29T06:48:10.859Z,100266.47
2022-11-29T06:49:21.005Z,100272.03
2022-11-29T06:50:31.866Z,100267.28
2022-11-29T06:51:35.928Z,100270.34
2022-11-29T06:52:42.783Z,100272.88
2022-11-29T06:53:44.206Z,100272.88
2022-11-29T06:54:57.438Z,100276.78
2022-11-29T06:56:04.196Z,100271.19
2022-11-29T06:57:05.658Z,100275.94
2022-11-29T06:58:07.092Z,100276.22
2022-11-29T06:59:17.337Z,100277.31
2022-11-29T07:00:20.045Z,100279.53
2022-11-29T07:01:41.211Z,100283.44
2022-11-29T07:02:42.698Z,100283.44
2022-11-29T07:04:04.473Z,100289.84
2022-11-29T07:05:10.482Z,100285.13
2022-11-29T07:06:16.546Z,100287.63
2022-11-29T07:07:19.265Z,100291.53
2022-11-29T07:08:21.901Z,100292.38
2022-11-29T07:09:25.408Z,100289.59
2022-11-29T07:10:26.971Z,100294.06
2022-11-29T07:11:28.985Z,100293.22
2022-11-29T07:12:30.600Z,100292.38
2022-11-29T07:13:32.226Z,100296.00
2022-11-29T07:14:33.806Z,100294.06
2022-11-29T07:15:35.266Z,100296.84
2022-11-29T07:16:39.646Z,100302.44
2022-11-29T07:17:47.143Z,100292.09
2022-11-29T07:18:51.134Z,100297.69
2022-11-29T07:20:11.478Z,100303.25
2022-11-29T07:21:31.542Z,100305.22
2022-11-29T07:22:53.257Z,100302.44
2022-11-29T07:23:59.753Z,100306.06
2022-11-29T07:25:04.046Z,100303.25
2022-11-29T07:26:08.290Z,100310.53
2022-11-29T07:27:13.478Z,100310.25
2022-11-29T07:28:27.773Z,100311.09
2022-11-29T07:29:29.245Z,100304.69
2022-11-29T07:30:33.932Z,100306.34
2022-11-29T07:31:38.147Z,100309.13
2022-11-29T07:32:50.475Z,100312.81
2022-11-29T07:33:57.279Z,100305.28
2022-11-29T07:35:08.572Z,100310.25
2022-11-29T07:36:09.997Z,100311.94
2022-11-29T07:37:16.317Z,100314.72
2022-11-29T07:38:41.191Z,100315.31
2022-11-29T07:39:45.609Z,100317.50
2022-11-29T07:40:52.980Z,100312.53
2022-11-29T07:42:02.860Z,100316.16
2022-11-29T07:43:20.098Z,100317.28
2022-11-29T07:44:27.749Z,100313.66
2022-11-29T07:45:32.642Z,100319.22
2022-11-29T07:46:34.185Z,100317.28
2022-11-29T07:47:36.234Z,100325.63
2022-11-29T07:48:37.811Z,100314.47
2022-11-29T07:49:39.268Z,100314.72
2022-11-29T07:50:41.030Z,100320.06
2022-11-29T07:51:42.565Z,100321.16
2022-11-29T07:52:44.172Z,100326.47
2022-11-29T07:53:45.735Z,100314.22
2022-11-29T07:54:47.444Z,100317.00
2022-11-29T07:55:49.297Z,100329.84
2022-11-29T07:56:50.779Z,100324.00
2022-11-29T07:57:52.335Z,100323.72
2022-11-29T07:58:53.947Z,100328.47
2022-11-29T07:59:55.439Z,100325.41
2022-11-29T08:00:57.032Z,100323.44
2022-11-29T08:01:59.243Z,100323.19
2022-11-29T08:03:00.869Z,100324.84
2022-11-29T08:04:02.322Z,100332.13
2022-11-29T08:05:04.015Z,100323.75
2022-11-29T08:06:05.560Z,100333.81
2022-11-29T08:07:07.051Z,100325.47
2022-11-29T08:08:08.609Z,100335.50
2022-11-29T08:09:10.131Z,100322.66
2022-11-29T08:10:15.505Z,100329.09
2022-11-29T08:11:16.973Z,100334.41
2022-11-29T08:12:18.479Z,100333.28
2022-11-29T08:13:20.654Z,100330.78
2022-11-29T08:14:22.306Z,100334.66
2022-11-29T08:15:23.800Z,100332.72
2022-11-29T08:16:25.468Z,100330.16
2022-11-29T08:17:26.992Z,100336.06
2022-11-29T08:18:28.493Z,100332.44
2022-11-29T08:19:29.969Z,100329.38
2022-11-29T08:20:31.473Z,100328.53
2022-11-29T08:21:32.957Z,100336.66
2022-11-29T08:22:34.509Z,100339.16
2022-11-29T08:23:35.980Z,100338.31
2022-11-29T08:24:37.479Z,100331.63
2022-11-29T08:25:39.066Z,100336.94
2022-11-29T08:26:40.570Z,100343.38
2022-11-29T08:27:42.090Z,100338.91
2022-11-29T08:28:43.606Z,100336.09
2022-11-29T08:29:45.105Z,100344.19
2022-11-29T08:30:46.589Z,100345.06
2022-11-29T08:31:53.160Z,100342.84
2022-11-29T08:32:54.795Z,100348.44
2022-11-29T08:33:56.298Z,100345.41
2022-11-29T08:34:57.759Z,100347.09
2022-11-29T08:36:04.242Z,100350.72
2022-11-29T08:37:05.688Z,100346.81
2022-11-29T08:38:07.217Z,100354.06
2022-11-29T08:39:09.706Z,100355.75
2022-11-29T08:40:11.741Z,100354.06
2022-11-29T08:41:13.897Z,100353.53
2022-11-29T08:42:15.404Z,100351.84
2022-11-29T08:43:16.886Z,100359.13
2022-11-29T08:44:18.425Z,100349.63
2022-11-29T08:45:20.154Z,100348.50
2022-11-29T08:46:21.670Z,100355.78
2022-11-29T08:47:38.142Z,100353.00
2022-11-29T08:48:39.657Z,100352.72
2022-11-29T08:50:01.107Z,100356.09
2022-11-29T08:51:02.712Z,100356.69
2022-11-29T08:52:22.874Z,100357.50
2022-11-29T08:53:42.878Z,100359.47
2022-11-29T08:54:44.694Z,100359.19
2022-11-29T08:55:46.937Z,100358.09
2022-11-29T08:58:10.766Z,100366.19
2022-11-29T08:59:12.308Z,100369.53
2022-11-29T09:00:14.141Z,100364.81
2022-11-29T09:01:16.432Z,100366.47
2022-11-29T09:02:19.621Z,100362.56
2022-11-29T09:03:39.726Z,100367.09
2022-11-29T09:04:41.166Z,100367.66
2022-11-29T09:05:42.731Z,100369.31
2022-11-29T09:06:44.461Z,100374.06
2022-11-29T09:07:46.926Z,100376.59
2022-11-29T09:08:48.474Z,100368.22
2022-11-29T09:09:49.968Z,100378.00
2022-11-29T09:10:51.494Z,100378.84
2022-11-29T09:11:52.947Z,100377.72
2022-11-29T09:12:54.459Z,100374.66
2022-11-29T09:13:56.929Z,100377.44
2022-11-29T09:14:58.381Z,100376.34
2022-11-29T09:15:59.906Z,100365.13
2022-11-29T09:17:01.680Z,100382.75
2022-11-29T09:18:05.186Z,100383.59
2022-11-29T09:19:06.899Z,100375.81
2022-11-29T09:20:08.650Z,100378.34
2022-11-29T09:21:10.912Z,100382.81
2022-11-29T09:22:12.986Z,100385.59
2022-11-29T09:23:14.481Z,100387.28
2022-11-29T09:24:16.029Z,100390.66
2022-11-29T09:25:17.518Z,100388.41
2022-11-29T09:26:19.165Z,100392.91
2022-11-29T09:27:20.613Z,100387.31
2022-11-29T09:28:22.230Z,100392.63
2022-11-29T09:29:23.686Z,100398.81
2022-11-29T09:30:25.202Z,100387.88
2022-11-29T09:31:27.770Z,100402.44
2022-11-29T09:32:29.614Z,100394.91
2022-11-29T09:33:31.117Z,100394.63
2022-11-29T09:34:32.607Z,100395.19
2022-11-29T09:35:34.653Z,100396.03
2022-11-29T09:36:36.119Z,100399.66
2022-11-29T09:37:37.657Z,100392.97
2022-11-29T09:38:39.345Z,100391.84
2022-11-29T09:39:41.635Z,100396.31
2022-11-29T09:40:48.254Z,100394.38
2022-11-29T09:42:02.292Z,100405.28
2022-11-29T09:43:10.874Z,100403.06
2022-11-29T09:44:38.287Z,100410.06
2022-11-29T09:45:42.477Z,100409.78
2022-11-29T09:46:43.964Z,100407.84
2022-11-29T09:48:04.219Z,100410.34
2022-11-29T09:49:05.714Z,100406.44
2022-11-29T09:50:16.501Z,100410.91
2022-11-29T09:51:42.693Z,100404.22
2022-11-29T09:52:45.566Z,100412.31
2022-11-29T09:54:05.977Z,100406.50
2022-11-29T09:55:16.622Z,100408.19
2022-11-29T09:56:18.118Z,100405.94
2022-11-29T09:57:21.828Z,100412.09
2022-11-29T09:58:26.145Z,100414.63
2022-11-29T09:59:29.124Z,100404.28
2022-11-29T10:00:30.988Z,100416.03
2022-11-29T10:01:34.266Z,100414.06
2022-11-29T10:02:47.566Z,100420.50
2022-11-29T10:03:51.868Z,100418.31
2022-11-29T10:04:54.099Z,100416.34
2022-11-29T10:05:59.619Z,100414.38
2022-11-29T10:07:03.178Z,100414.38
2022-11-29T10:08:06.733Z,100417.19
2022-11-29T10:09:14.430Z,100411.59
2022-11-29T10:10:20.495Z,100422.50
2022-11-29T10:11:23.649Z,100421.66
2022-11-29T10:12:35.020Z,100419.44
2022-11-29T10:13:36.563Z,100414.69
2022-11-29T10:14:44.050Z,100410.75
2022-11-29T10:15:46.826Z,100422.78
2022-11-29T10:16:48.426Z,100418.88
2022-11-29T10:17:51.982Z,100417.75
2022-11-29T10:18:59.162Z,100418.03
2022-11-29T10:20:04.306Z,100416.66
2022-11-29T10:21:16.742Z,100413.84
2022-11-29T10:22:27.082Z,100419.16
2022-11-29T10:23:31.204Z,100424.75
2022-11-29T10:24:32.945Z,100414.69
2022-11-29T10:25:47.207Z,100418.59
2022-11-29T10:26:48.779Z,100411.88
2022-11-29T10:27:50.658Z,100414.97
2022-11-29T10:28:55.177Z,100421.66
2022-11-29T10:29:57.071Z,100414.97
2022-11-29T10:31:00.380Z,100409.38
2022-11-29T10:32:10.102Z,100412.16
2022-11-29T10:33:25.702Z,100414.13
2022-11-29T10:34:28.386Z,100409.94
2022-11-29T10:35:30.555Z,100404.63
2022-11-29T10:36:32.056Z,100414.69
2022-11-29T10:37:34.790Z,100413.56
2022-11-29T10:38:36.245Z,100409.94
2022-11-29T10:39:45.492Z,100418.03
2022-11-29T10:40:47.401Z,100411.38
2022-11-29T10:41:52.255Z,100414.41
2022-11-29T10:42:53.999Z,100417.81
2022-11-29T10:43:56.113Z,100411.63
2022-11-29T10:44:57.818Z,100415.25
2022-11-29T10:46:00.137Z,100407.72
2022-11-29T10:47:04.461Z,100410.50
2022-11-29T10:48:09.421Z,100420.00
2022-11-29T10:49:12.583Z,100416.97
2022-11-29T10:50:34.038Z,100413.28
2022-11-29T10:51:35.658Z,100416.09
2022-11-29T10:52:37.430Z,100412.72
2022-11-29T10:53:38.928Z,100415.81
2022-11-29T10:54:41.681Z,100413.56
2022-11-29T10:55:44.128Z,100414.16
2022-11-29T10:56:45.602Z,100418.66
2022-11-29T10:58:05.743Z,100415.25
2022-11-29T10:59:09.382Z,100416.09
2022-11-29T11:00:11.593Z,100416.09
2022-11-29T11:01:13.101Z,100416.97
2022-11-29T11:02:18.699Z,100416.69
2022-11-29T11:03:39.996Z,100413.28
2022-11-29T11:04:46.180Z,100416.97
2022-11-29T11:05:56.972Z,100411.09
2022-11-29T11:07:02.362Z,100418.66
2022-11-29T11:08:05.577Z,100415.56
2022-11-29T11:09:20.197Z,100417.25
2022-11-29T11:10:22.621Z,100418.94
2022-11-29T11:11:28.369Z,100419.78
2022-11-29T11:12:30.659Z,100414.44
2022-11-29T11:13:32.171Z,100413.34
2022-11-29T11:14:36.342Z,100419.78
2022-11-29T11:15:37.969Z,100415.00
2022-11-29T11:16:39.449Z,100416.69
2022-11-29T11:17:42.283Z,100418.38
2022-11-29T11:18:44.011Z,100415.56
2022-11-29T11:19:53.975Z,100414.47
2022-11-29T11:20:58.574Z,100415.56
2022-11-29T11:22:03.005Z,100417.25
2022-11-29T11:23:05.839Z,100420.06
2022-11-29T11:24:07.948Z,100417.25
2022-11-29T11:25:24.758Z,100413.63
2022-11-29T11:26:26.349Z,100418.38
2022-11-29T11:27:28.931Z,100413.91
2022-11-29T11:28:31.705Z,100416.69
2022-11-29T11:29:38.014Z,100413.91
2022-11-29T11:30:39.522Z,100413.91
2022-11-29T11:31:41.012Z,100421.44
2022-11-29T11:32:42.514Z,100421.16
2022-11-29T11:33:44.626Z,100419.50
2022-11-29T11:34:53.474Z,100403.22
2022-11-29T11:36:03.690Z,100422.00
2022-11-29T11:37:31.502Z,100420.06
2022-11-29T11:38:37.260Z,100427.88
2022-11-29T11:39:38.776Z,100419.50
2022-11-29T11:40:40.296Z,100427.88
2022-11-29T11:42:00.415Z,100427.63
2022-11-29T11:43:01.875Z,100426.81
2022-11-29T11:44:10.415Z,100422.63
2022-11-29T11:45:17.026Z,100423.44
2022-11-29T11:46:18.562Z,100425.41
2022-11-29T11:47:21.111Z,100421.50
2022-11-29T11:48:22.675Z,100423.44
2022-11-29T11:49:26.771Z,100425.41
2022-11-29T11:50:42.084Z,100424.56
2022-11-29T11:51:44.054Z,100422.88
2022-11-29T11:52:50.634Z,100431.28
2022-11-29T11:53:54.229Z,100430.16
2022-11-29T11:54:59.145Z,100437.44
2022-11-29T11:56:01.241Z,100433.53
2022-11-29T11:57:02.700Z,100431.56
2022-11-29T11:58:09.687Z,100434.38
2022-11-29T11:59:30.007Z,100434.38
2022-11-29T12:02:10.566Z,100432.69
2022-11-29T12:03:30.472Z,100433.78
2022-11-29T12:04:34.056Z,100429.88
2022-11-29T12:05:35.542Z,100431.84
2022-11-29T12:06:50.171Z,100437.44
2022-11-29T12:08:10.832Z,100433.25
2022-11-29T12:09:13.959Z,100436.03
2022-11-29T12:10:16.277Z,100432.97
2022-11-29T12:11:17.794Z,100434.66
2022-11-29T12:12:29.660Z,100429.88
2022-11-29T12:13:32.175Z,100429.63
2022-11-29T12:14:39.333Z,100428.50
2022-11-29T12:15:41.482Z,100428.50
2022-11-29T12:16:42.996Z,100430.19
2022-11-29T12:17:46.715Z,100429.09
2022-11-29T12:18:48.799Z,100424.06
2022-11-29T12:20:02.357Z,100436.09
2022-11-29T12:21:07.430Z,100434.13
2022-11-29T12:22:08.962Z,100433.00
2022-11-29T12:23:12.990Z,100429.09
2022-11-29T12:24:22.541Z,100436.38
2022-11-29T12:25:32.070Z,100441.97
2022-11-29T12:26:57.094Z,100432.72
2022-11-29T12:27:59.690Z,100440.28
2022-11-29T12:29:01.489Z,100437.47
2022-11-29T12:30:05.597Z,100438.06
2022-11-29T12:31:22.106Z,100439.72
2022-11-29T12:32:26.731Z,100437.53
2022-11-29T12:34:04.176Z,100434.72
2022-11-29T12:35:20.563Z,100444.56
2022-11-29T12:36:25.031Z,100437.84
2022-11-29T12:37:44.662Z,100437.84
2022-11-29T12:39:12.474Z,100440.34
2022-11-29T12:40:13.909Z,100445.94
2022-11-29T12:41:18.369Z,100447.63